createdAt,value
2018-04-26T00:00:50.358Z,59.50
2018-04-26T00:03:18.678Z,59.70
2018-04-26T00:05:46.970Z,60.00
2018-04-26T00:08:15.278Z,60.50
2018-04-26T00:10:43.574Z,60.90
2018-04-26T00:13:11.891Z,61.10
2018-04-26T00:15:40.184Z,61.40
2018-04-26T00:18:08.500Z,61.90
2018-04-26T00:20:36.792Z,62.20
2018-04-26T00:23:05.128Z,62.40
2018-04-26T00:25:33.426Z,62.40
2018-04-26T00:28:01.748Z,62.50
2018-04-26T00:30:30.047Z,62.80
2018-04-26T00:32:58.355Z,63.10
2018-04-26T00:35:25.871Z,63.00
2018-04-26T00:37:54.192Z,63.40
2018-04-26T00:40:22.482Z,63.60
2018-04-26T00:42:50.803Z,63.70
2018-04-26T00:45:19.108Z,63.80
2018-04-26T00:47:47.435Z,64.00
2018-04-26T00:50:15.740Z,64.10
2018-04-26T00:52:44.054Z,64.20
2018-04-26T00:55:11.578Z,64.20
2018-04-26T00:57:39.891Z,64.70
2018-04-26T01:00:08.187Z,64.90
2018-04-26T01:02:36.502Z,65.00
2018-04-26T01:05:04.791Z,65.20
2018-04-26T01:07:33.113Z,65.30
2018-04-26T01:10:01.408Z,65.40
2018-04-26T01:12:29.719Z,65.40
2018-04-26T01:14:58.008Z,65.30
2018-04-26T01:17:26.332Z,65.40
2018-04-26T01:19:54.627Z,65.40
2018-04-26T01:22:22.911Z,65.60
2018-04-26T01:24:51.227Z,65.80
2018-04-26T01:27:19.518Z,65.70
2018-04-26T01:29:47.830Z,65.90
2018-04-26T01:32:16.123Z,66.00
2018-04-26T01:34:44.428Z,65.70
2018-04-26T01:37:23.928Z,66.10
2018-04-26T01:39:52.246Z,66.40
2018-04-26T01:42:20.546Z,66.60
2018-04-26T01:44:48.867Z,66.90
2018-04-26T01:47:17.165Z,67.20
2018-04-26T01:49:45.483Z,67.30
2018-04-26T01:52:13.779Z,67.50
2018-04-26T01:54:42.099Z,67.60
2018-04-26T01:57:10.395Z,67.80
2018-04-26T01:59:38.709Z,68.10
2018-04-26T02:02:07.003Z,68.30
2018-04-26T02:04:35.314Z,68.70
2018-04-26T02:07:03.608Z,68.80
2018-04-26T02:09:31.926Z,68.80
2018-04-26T02:12:00.219Z,68.70
2018-04-26T02:14:28.542Z,68.70
2018-04-26T02:16:56.843Z,68.80
2018-04-26T02:19:25.158Z,68.70
2018-04-26T02:21:53.450Z,68.70
2018-04-26T02:24:21.771Z,68.50
2018-04-26T02:26:50.067Z,68.30
2018-04-26T02:29:18.390Z,68.60
2018-04-26T02:31:46.696Z,68.10
2018-04-26T02:34:15.019Z,68.10
2018-04-26T02:36:43.315Z,68.10
2018-04-26T02:39:11.627Z,68.00
2018-04-26T02:41:39.915Z,67.90
2018-04-26T02:44:08.232Z,67.80
2018-04-26T02:46:36.518Z,67.90
2018-04-26T02:49:04.830Z,67.80
2018-04-26T02:51:33.135Z,67.70
2018-04-26T02:54:01.437Z,67.90
2018-04-26T02:56:29.723Z,67.90
2018-04-26T02:58:58.037Z,68.00
2018-04-26T03:01:26.325Z,67.90
2018-04-26T03:03:54.636Z,68.00
2018-04-26T03:06:22.926Z,67.80
2018-04-26T03:08:51.222Z,67.90
2018-04-26T03:11:19.547Z,67.90
2018-04-26T03:13:47.839Z,67.60
2018-04-26T03:16:16.156Z,67.40
2018-04-26T03:18:44.439Z,67.50
2018-04-26T03:21:12.755Z,67.20
2018-04-26T03:23:41.043Z,67.20
2018-04-26T03:26:08.591Z,67.20
2018-04-26T03:28:36.883Z,67.50
2018-04-26T03:31:05.286Z,67.40
2018-04-26T03:33:33.527Z,67.40
2018-04-26T03:36:01.832Z,67.40
2018-04-26T03:38:30.125Z,67.60
2018-04-26T03:40:58.439Z,67.60
2018-04-26T03:43:26.722Z,68.20
2018-04-26T03:45:55.027Z,67.90
2018-04-26T03:48:23.323Z,67.80
2018-04-26T03:50:51.637Z,67.90
2018-04-26T03:53:19.931Z,67.90
2018-04-26T03:55:48.242Z,67.90
2018-04-26T03:58:16.535Z,67.80
2018-04-26T04:00:56.597Z,67.80
2018-04-26T04:03:36.759Z,68.60
2018-04-26T04:06:14.985Z,69.10
2018-04-26T04:08:43.273Z,69.20
2018-04-26T04:11:11.590Z,69.20
2018-04-26T04:13:39.874Z,69.70
2018-04-26T04:16:08.183Z,69.50
2018-04-26T04:18:36.479Z,69.80
2018-04-26T04:21:04.793Z,70.10
2018-04-26T04:23:33.091Z,70.20
2018-04-26T04:26:01.407Z,70.70
2018-04-26T04:28:29.701Z,70.90
2018-04-26T04:30:58.006Z,70.80
2018-04-26T04:33:26.307Z,70.60
2018-04-26T04:35:54.618Z,70.60
2018-04-26T04:38:22.906Z,70.40
2018-04-26T04:40:51.213Z,69.90
2018-04-26T04:43:19.503Z,69.50
2018-04-26T04:45:47.814Z,69.30
2018-04-26T04:48:16.098Z,69.20
2018-04-26T04:50:44.406Z,68.80
2018-04-26T04:53:12.698Z,68.80
2018-04-26T04:55:41.019Z,68.70
2018-04-26T04:58:09.298Z,69.00
2018-04-26T05:00:37.586Z,69.40
2018-04-26T05:03:05.902Z,69.50
2018-04-26T05:05:34.186Z,69.70
2018-04-26T05:08:02.500Z,70.10
2018-04-26T05:10:30.795Z,69.40
2018-04-26T05:12:59.114Z,67.90
2018-04-26T05:15:27.403Z,68.40
2018-04-26T05:17:55.708Z,67.70
2018-04-26T05:20:23.993Z,67.50
2018-04-26T05:22:51.535Z,67.30
2018-04-26T05:25:19.819Z,67.10
2018-04-26T05:27:48.122Z,66.90
2018-04-26T05:30:16.415Z,66.60
2018-04-26T05:32:44.730Z,67.30
2018-04-26T05:35:13.019Z,67.90
2018-04-26T05:37:41.332Z,68.50
2018-04-26T05:40:09.626Z,68.60
2018-04-26T05:42:37.947Z,69.20
2018-04-26T05:45:06.976Z,69.80
2018-04-26T05:47:34.514Z,69.80
2018-04-26T05:50:02.811Z,70.40
2018-04-26T05:52:31.121Z,71.40
2018-04-26T05:54:59.490Z,72.70
2018-04-26T05:57:27.737Z,73.30
2018-04-26T05:59:56.033Z,73.90
2018-04-26T06:02:24.344Z,74.00
2018-04-26T06:04:52.630Z,74.30
2018-04-26T06:07:20.942Z,74.00
2018-04-26T06:09:49.226Z,72.70
2018-04-26T06:12:16.772Z,72.80
2018-04-26T06:14:45.063Z,72.20
2018-04-26T06:17:13.466Z,69.80
2018-04-26T06:19:41.684Z,69.90
2018-04-26T06:22:09.994Z,70.50
2018-04-26T06:24:38.288Z,70.60
2018-04-26T06:27:06.614Z,67.30
2018-04-26T06:29:34.922Z,67.70
2018-04-26T06:32:03.214Z,68.30
2018-04-26T06:34:31.523Z,67.30
2018-04-26T06:36:59.823Z,67.30
2018-04-26T06:39:28.138Z,67.00
2018-04-26T06:41:56.438Z,65.20
2018-04-26T06:44:24.762Z,65.20
2018-04-26T06:46:53.059Z,66.80
2018-04-26T06:49:21.370Z,67.60
2018-04-26T06:51:49.654Z,68.20
2018-04-26T06:54:17.967Z,70.00
2018-04-26T06:56:46.258Z,69.10
2018-04-26T06:59:14.570Z,69.90
2018-04-26T07:01:42.871Z,69.50
2018-04-26T07:04:11.187Z,69.60
2018-04-26T07:06:39.479Z,69.60
2018-04-26T07:09:07.037Z,69.60
2018-04-26T07:11:35.353Z,69.60
2018-04-26T07:14:03.663Z,67.90
2018-04-26T07:16:31.963Z,67.80
2018-04-26T07:19:00.279Z,67.70
2018-04-26T07:21:28.582Z,66.70
2018-04-26T07:23:56.900Z,65.50
2018-04-26T07:26:25.200Z,64.90
2018-04-26T07:28:53.531Z,63.30
2018-04-26T07:31:21.822Z,62.40
2018-04-26T07:33:50.129Z,60.20
2018-04-26T07:36:18.424Z,58.50
2018-04-26T07:38:46.740Z,57.10
2018-04-26T07:41:15.035Z,57.80
2018-04-26T07:43:43.354Z,57.90
2018-04-26T07:46:11.647Z,58.50
2018-04-26T07:48:39.963Z,58.20
2018-04-26T07:51:08.264Z,58.00
2018-04-26T07:53:36.583Z,57.40
2018-04-26T07:56:04.896Z,56.80
2018-04-26T07:58:33.222Z,57.20
2018-04-26T08:01:01.518Z,57.40
2018-04-26T08:03:29.835Z,57.50
2018-04-26T08:05:58.127Z,56.70
2018-04-26T08:08:26.443Z,56.70
2018-04-26T08:10:54.735Z,56.70
2018-04-26T08:13:23.026Z,56.90
2018-04-26T08:15:51.340Z,55.60
2018-04-26T08:18:19.642Z,55.50
2018-04-26T08:20:47.963Z,55.50
2018-04-26T08:23:16.258Z,55.40
2018-04-26T08:25:44.576Z,54.20
2018-04-26T08:28:12.875Z,54.70
2018-04-26T08:30:41.185Z,53.90
2018-04-26T08:33:08.712Z,53.90
2018-04-26T08:35:37.024Z,52.70
2018-04-26T08:38:05.338Z,52.20
2018-04-26T08:40:33.657Z,52.00
2018-04-26T08:43:01.956Z,51.60
2018-04-26T08:45:30.315Z,51.60
2018-04-26T08:47:58.591Z,49.40
2018-04-26T08:50:26.905Z,50.30
2018-04-26T08:52:55.203Z,50.00
2018-04-26T08:55:23.510Z,50.30
2018-04-26T08:57:51.800Z,51.00
2018-04-26T09:00:20.123Z,49.90
2018-04-26T09:02:47.651Z,49.90
2018-04-26T09:05:16.019Z,50.50
2018-04-26T09:07:44.316Z,50.20
2018-04-26T09:10:12.642Z,49.70
2018-04-26T09:12:40.934Z,48.20
2018-04-26T09:15:09.258Z,48.80
2018-04-26T09:17:37.559Z,48.80
2018-04-26T09:20:05.875Z,48.10
2018-04-26T09:22:34.174Z,48.30
2018-04-26T09:25:02.492Z,48.10
2018-04-26T09:27:30.815Z,47.10
2018-04-26T09:29:59.133Z,47.50
2018-04-26T09:32:27.434Z,47.20
2018-04-26T09:34:55.751Z,47.00
2018-04-26T09:37:24.046Z,46.60
2018-04-26T09:39:52.367Z,48.00
2018-04-26T09:42:20.665Z,47.70
2018-04-26T09:44:48.987Z,47.00
2018-04-26T09:47:17.284Z,46.50
2018-04-26T09:49:45.595Z,45.30
2018-04-26T09:52:13.886Z,45.20
2018-04-26T09:54:42.220Z,45.60
2018-04-26T09:57:10.506Z,46.10
2018-04-26T09:59:38.800Z,45.70
2018-04-26T10:02:07.107Z,45.40
2018-04-26T10:04:41.099Z,45.10
2018-04-26T10:07:09.422Z,44.60
2018-04-26T10:09:37.718Z,44.10
2018-04-26T10:12:06.039Z,44.00
2018-04-26T10:14:34.330Z,43.70
2018-04-26T10:17:02.716Z,44.00
2018-04-26T10:19:30.975Z,44.90
2018-04-26T10:21:58.523Z,44.90
2018-04-26T10:24:26.819Z,46.30
2018-04-26T10:26:55.130Z,46.20
2018-04-26T10:29:23.807Z,44.40
2018-04-26T10:31:52.125Z,43.80
2018-04-26T10:34:20.430Z,44.20
2018-04-26T10:36:48.750Z,44.40
2018-04-26T10:39:17.044Z,43.00
2018-04-26T10:41:45.362Z,42.80
2018-04-26T10:44:13.737Z,43.80
2018-04-26T10:46:41.978Z,43.20
2018-04-26T10:49:10.274Z,43.30
2018-04-26T10:51:38.595Z,43.10
2018-04-26T10:54:06.890Z,42.90
2018-04-26T10:56:35.210Z,41.90
2018-04-26T10:59:03.502Z,42.10
2018-04-26T11:01:31.814Z,41.70
2018-04-26T11:04:00.107Z,41.20
2018-04-26T11:06:28.424Z,41.50
2018-04-26T11:08:56.719Z,40.70
2018-04-26T11:11:25.124Z,41.20
2018-04-26T11:13:52.598Z,41.20
2018-04-26T11:16:20.927Z,41.20
2018-04-26T11:18:49.232Z,41.30
2018-04-26T11:21:17.579Z,41.20
2018-04-26T11:23:45.864Z,40.90
2018-04-26T11:26:14.182Z,39.60
2018-04-26T11:28:42.476Z,40.40
2018-04-26T11:31:10.798Z,40.30
2018-04-26T11:33:39.095Z,41.10
2018-04-26T11:36:07.422Z,41.20
2018-04-26T11:38:35.726Z,41.70
2018-04-26T11:41:03.565Z,41.70
2018-04-26T11:43:31.887Z,41.50
2018-04-26T11:46:00.191Z,39.70
2018-04-26T11:48:28.507Z,38.00
2018-04-26T11:50:56.791Z,37.00
2018-04-26T11:53:25.106Z,36.50
2018-04-26T11:55:53.411Z,36.20
2018-04-26T11:58:21.732Z,36.60
2018-04-26T12:00:50.020Z,38.10
2018-04-26T12:03:18.327Z,38.40
2018-04-26T12:05:46.630Z,39.70
2018-04-26T12:08:14.938Z,39.60
2018-04-26T12:10:43.225Z,39.20
2018-04-26T12:13:11.544Z,39.30
2018-04-26T12:15:39.834Z,40.20
2018-04-26T12:18:08.147Z,38.40
2018-04-26T12:20:36.434Z,38.20
2018-04-26T12:23:04.763Z,38.60
2018-04-26T12:25:33.058Z,39.10
2018-04-26T12:28:01.379Z,39.70
2018-04-26T12:30:29.672Z,38.00
2018-04-26T12:32:57.987Z,37.10
2018-04-26T12:35:26.274Z,37.10
2018-04-26T12:37:54.586Z,37.10
2018-04-26T12:40:22.887Z,36.10
2018-04-26T12:42:51.195Z,35.40
2018-04-26T12:45:19.492Z,36.40
2018-04-26T12:47:47.795Z,37.40
2018-04-26T12:50:16.145Z,38.10
2018-04-26T12:52:44.405Z,39.30
2018-04-26T12:55:12.704Z,40.40
2018-04-26T12:57:41.018Z,41.20
2018-04-26T13:00:09.323Z,41.40
2018-04-26T13:02:37.670Z,40.80
2018-04-26T13:05:06.001Z,40.70
2018-04-26T13:07:34.299Z,40.60
2018-04-26T13:10:02.626Z,39.20
2018-04-26T13:12:30.943Z,37.80
2018-04-26T13:14:59.231Z,38.00
2018-04-26T13:17:27.611Z,39.10
2018-04-26T13:19:55.883Z,39.10
2018-04-26T13:22:24.178Z,39.70
2018-04-26T13:24:52.491Z,39.50
2018-04-26T13:27:20.017Z,39.50
2018-04-26T13:29:48.359Z,40.10
2018-04-26T13:32:15.891Z,40.10
2018-04-26T13:34:44.206Z,39.90
2018-04-26T13:37:12.499Z,40.70
2018-04-26T13:39:40.835Z,40.50
2018-04-26T13:42:09.130Z,40.30
2018-04-26T13:44:37.445Z,40.90
2018-04-26T13:47:05.743Z,41.00
2018-04-26T13:49:34.059Z,40.40
2018-04-26T13:52:03.567Z,40.30
2018-04-26T13:54:31.871Z,40.00
2018-04-26T13:57:00.168Z,39.40
2018-04-26T13:59:28.498Z,40.20
2018-04-26T14:01:56.791Z,38.70
2018-04-26T14:04:25.113Z,38.40
2018-04-26T14:06:53.407Z,38.00
2018-04-26T14:09:21.714Z,37.80
2018-04-26T14:11:50.004Z,37.40
2018-04-26T14:14:18.310Z,37.70
2018-04-26T14:16:46.603Z,37.80
2018-04-26T14:19:14.908Z,37.00
2018-04-26T14:21:43.192Z,37.10
2018-04-26T14:24:11.500Z,37.20
2018-04-26T14:26:39.022Z,37.20
2018-04-26T14:29:07.335Z,37.90
2018-04-26T14:31:35.632Z,38.80
2018-04-26T14:34:03.938Z,38.90
2018-04-26T14:36:32.230Z,40.30
2018-04-26T14:39:00.543Z,43.80
2018-04-26T14:41:28.867Z,45.00
2018-04-26T14:43:57.187Z,44.70
2018-04-26T14:46:25.483Z,43.90
2018-04-26T14:48:53.800Z,42.50
2018-04-26T14:51:22.087Z,41.90
2018-04-26T14:53:50.399Z,41.40
2018-04-26T14:56:18.707Z,39.10
2018-04-26T14:58:47.003Z,39.40
2018-04-26T15:01:15.319Z,40.10
2018-04-26T15:03:43.611Z,40.20
2018-04-26T15:06:11.930Z,40.80
2018-04-26T15:08:40.223Z,40.90
2018-04-26T15:11:08.636Z,39.90
2018-04-26T15:13:36.932Z,39.20
2018-04-26T15:16:05.240Z,39.60
2018-04-26T15:18:32.774Z,39.60
2018-04-26T15:21:01.083Z,40.90
2018-04-26T15:23:29.389Z,41.00
2018-04-26T15:25:57.702Z,39.40
2018-04-26T15:28:25.235Z,39.40
2018-04-26T15:30:53.549Z,39.80
2018-04-26T15:33:21.842Z,39.20
2018-04-26T15:35:50.163Z,39.30
2018-04-26T15:38:18.463Z,38.10
2018-04-26T15:40:46.775Z,37.90
2018-04-26T15:43:14.298Z,37.80
2018-04-26T15:45:42.608Z,37.50
2018-04-26T15:48:10.903Z,36.90
2018-04-26T15:50:54.091Z,37.20
2018-04-26T15:53:34.374Z,37.60
2018-04-26T15:56:14.647Z,36.90
2018-04-26T15:59:09.591Z,36.30
2018-04-26T16:15:17.951Z,35.10
2018-04-26T16:18:03.745Z,37.00
2018-04-26T16:20:59.768Z,35.80
2018-04-26T16:23:45.723Z,35.60
2018-04-26T16:26:25.830Z,35.40
2018-04-26T16:29:11.548Z,35.10
2018-04-26T16:32:10.207Z,34.80
2018-04-26T16:34:50.350Z,35.00
2018-04-26T16:37:35.473Z,35.00
2018-04-26T16:40:03.767Z,34.60
2018-04-26T16:42:32.107Z,35.30
2018-04-26T16:45:00.386Z,36.40
2018-04-26T16:47:28.672Z,37.10
2018-04-26T16:49:56.974Z,37.40
2018-04-26T16:52:25.259Z,37.40
2018-04-26T16:54:53.571Z,37.80
2018-04-26T16:57:21.858Z,38.40
2018-04-26T16:59:50.249Z,38.90
2018-04-26T17:02:18.479Z,39.40
2018-04-26T17:04:46.968Z,39.20
2018-04-26T17:07:15.106Z,38.90
2018-04-26T17:09:43.421Z,38.60
2018-04-26T17:12:11.710Z,38.60
2018-04-26T17:14:40.024Z,39.20
2018-04-26T17:17:08.318Z,39.20
2018-04-26T17:19:36.634Z,39.40
2018-04-26T17:22:04.930Z,40.00
2018-04-26T17:24:33.243Z,40.40
2018-04-26T17:27:01.537Z,40.60
2018-04-26T17:29:29.843Z,40.80
2018-04-26T17:31:58.138Z,41.00
2018-04-26T17:34:26.471Z,41.30
2018-04-26T17:36:54.765Z,42.00
2018-04-26T17:39:23.074Z,42.30
2018-04-26T17:41:51.364Z,42.80
2018-04-26T17:44:19.682Z,43.00
2018-04-26T17:46:47.979Z,42.80
2018-04-26T17:49:16.295Z,42.70
2018-04-26T17:51:44.588Z,42.80
2018-04-26T17:54:12.888Z,43.00
2018-04-26T17:56:41.199Z,42.90
2018-04-26T17:59:09.495Z,42.00
2018-04-26T18:01:37.803Z,41.60
2018-04-26T18:04:06.111Z,41.40
2018-04-26T18:06:35.164Z,41.50
2018-04-26T18:09:03.451Z,42.00
2018-04-26T18:11:31.759Z,42.40
2018-04-26T18:14:00.047Z,43.00
2018-04-26T18:16:28.351Z,43.70
2018-04-26T18:18:56.644Z,44.20
2018-04-26T18:21:24.963Z,44.70
2018-04-26T18:23:53.261Z,45.70
2018-04-26T18:26:21.575Z,46.80
2018-04-26T18:28:49.869Z,47.50
2018-04-26T18:31:18.215Z,48.40
2018-04-26T18:33:46.539Z,49.20
2018-04-26T18:36:14.873Z,49.70
2018-04-26T18:38:43.179Z,50.20
2018-04-26T18:41:11.496Z,50.40
2018-04-26T18:43:39.791Z,50.80
2018-04-26T18:46:08.107Z,51.30
2018-04-26T18:48:36.408Z,51.80
2018-04-26T18:51:04.798Z,52.50
2018-04-26T18:53:33.213Z,52.90
2018-04-26T18:56:01.641Z,53.40
2018-04-26T18:58:30.003Z,54.20
2018-04-26T19:00:58.315Z,54.60
2018-04-26T19:03:26.687Z,55.60
2018-04-26T19:05:54.231Z,55.90
2018-04-26T19:08:22.523Z,56.50
2018-04-26T19:10:50.835Z,56.80
2018-04-26T19:13:18.362Z,56.80
2018-04-26T19:15:46.764Z,57.30
2018-04-26T19:18:15.013Z,57.70
2018-04-26T19:20:43.335Z,57.90
2018-04-26T19:23:10.892Z,57.90
2018-04-26T19:25:39.204Z,58.90
2018-04-26T19:28:07.502Z,59.10
2018-04-26T19:30:35.803Z,59.30
2018-04-26T19:33:03.378Z,59.40
2018-04-26T19:35:32.855Z,60.00
2018-04-26T19:38:01.184Z,60.30
2018-04-26T19:40:29.474Z,60.80
2018-04-26T19:42:57.782Z,61.40
2018-04-26T19:45:26.110Z,61.50
2018-04-26T19:47:54.416Z,61.90
2018-04-26T19:50:22.709Z,62.40
2018-04-26T19:52:51.030Z,63.00
2018-04-26T19:55:19.344Z,63.60
2018-04-26T19:57:47.756Z,64.20
2018-04-26T20:00:15.982Z,64.50
2018-04-26T20:02:43.539Z,64.40
2018-04-26T20:05:11.066Z,64.60
2018-04-26T20:07:39.387Z,64.60
2018-04-26T20:10:07.674Z,64.80
2018-04-26T20:12:36.003Z,65.10
2018-04-26T20:15:04.323Z,65.70
2018-04-26T20:17:32.662Z,66.20
2018-04-26T20:20:00.951Z,66.90
2018-04-26T20:22:29.262Z,67.60
2018-04-26T20:24:57.581Z,67.70
2018-04-26T20:27:25.914Z,67.50
2018-04-26T20:29:54.215Z,67.50
2018-04-26T20:32:22.599Z,68.00
2018-04-26T20:34:50.919Z,68.20
2018-04-26T20:37:19.255Z,68.40
2018-04-26T20:39:47.552Z,68.60
2018-04-26T20:42:15.870Z,69.00
2018-04-26T20:44:48.094Z,68.90
2018-04-26T20:47:16.406Z,69.40
2018-04-26T20:49:44.703Z,69.30
2018-04-26T20:52:13.051Z,69.30
2018-04-26T20:54:41.343Z,69.30
2018-04-26T20:57:09.647Z,69.30
2018-04-26T20:59:37.967Z,69.10
2018-04-26T21:02:06.298Z,69.20
2018-04-26T21:04:34.726Z,69.50
2018-04-26T21:07:03.031Z,70.40
2018-04-26T21:09:31.394Z,69.90
2018-04-26T21:11:59.715Z,70.20
2018-04-26T21:14:27.267Z,70.20
2018-04-26T21:16:55.550Z,71.00
2018-04-26T21:19:24.563Z,71.20
2018-04-26T21:21:52.848Z,71.60
2018-04-26T21:24:20.379Z,71.60
2018-04-26T21:26:48.692Z,72.20
2018-04-26T21:29:16.983Z,72.20
2018-04-26T21:31:45.297Z,72.10
2018-04-26T21:34:13.591Z,72.00
2018-04-26T21:36:41.141Z,72.00
2018-04-26T21:39:09.429Z,72.30
2018-04-26T21:41:37.739Z,72.50
2018-04-26T21:44:06.026Z,72.30
2018-04-26T21:46:34.338Z,72.30
2018-04-26T21:49:02.647Z,72.50
2018-04-26T21:51:36.674Z,72.60
2018-04-26T21:54:10.626Z,72.80
2018-04-26T21:56:44.521Z,72.80
2018-04-26T21:59:18.468Z,72.80
2018-04-26T22:01:52.348Z,72.80
2018-04-26T22:04:20.642Z,73.00
2018-04-26T22:06:48.960Z,73.30
2018-04-26T22:09:17.250Z,73.70
2018-04-26T22:11:45.573Z,73.60
2018-04-26T22:14:13.873Z,73.90
2018-04-26T22:16:42.199Z,74.10
2018-04-26T22:19:10.491Z,74.20
2018-04-26T22:21:38.779Z,74.30
2018-04-26T22:24:07.091Z,74.30
2018-04-26T22:26:35.382Z,74.60
2018-04-26T22:29:03.688Z,74.70
2018-04-26T22:31:31.982Z,74.60
2018-04-26T22:34:00.294Z,74.60
2018-04-26T22:36:27.811Z,74.60
2018-04-26T22:38:56.123Z,74.80
2018-04-26T22:41:24.411Z,74.90
2018-04-26T22:43:52.717Z,74.90
2018-04-26T22:46:20.998Z,74.90
2018-04-26T22:48:49.309Z,74.90
2018-04-26T22:51:17.593Z,75.00
2018-04-26T22:53:45.903Z,75.10
2018-04-26T22:56:14.187Z,75.10
2018-04-26T22:58:42.481Z,75.20
2018-04-26T23:01:10.790Z,75.20
2018-04-26T23:03:39.083Z,75.30
2018-04-26T23:06:06.638Z,75.30
2018-04-26T23:08:34.931Z,75.50
2018-04-26T23:11:03.239Z,75.90
2018-04-26T23:13:31.527Z,76.10
2018-04-26T23:15:59.831Z,76.50
2018-04-26T23:18:28.123Z,76.90
2018-04-26T23:20:56.427Z,76.90
2018-04-26T23:23:24.715Z,77.00
2018-04-26T23:25:53.023Z,77.30
2018-04-26T23:28:20.543Z,77.30
2018-04-26T23:30:48.850Z,77.90
2018-04-26T23:33:17.131Z,77.50
2018-04-26T23:35:45.466Z,78.10
2018-04-26T23:38:12.995Z,78.00
2018-04-26T23:40:41.303Z,77.70
2018-04-26T23:43:09.594Z,77.60
2018-04-26T23:45:37.894Z,78.00
2018-04-26T23:48:05.411Z,78.00
2018-04-26T23:50:33.718Z,78.10
2018-04-26T23:53:01.248Z,78.10
2018-04-26T23:55:29.567Z,78.20
2018-04-26T23:57:57.855Z,78.10
